sensor_id;sensor_type;location;lat;lon;timestamp;temperature;humidity
40153;DHT22;26371;56.992;23.912;2023-08-12T00:00:11;13.70;99.90
40153;DHT22;26371;56.992;23.912;2023-08-12T00:02:44;13.70;99.90
40153;DHT22;26371;56.992;23.912;2023-08-12T00:05:14;13.80;99.90
40153;DHT22;26371;56.992;23.912;2023-08-12T00:07:42;13.90;99.90
40153;DHT22;26371;56.992;23.912;2023-08-12T00:10:11;13.90;99.90
40153;DHT22;26371;56.992;23.912;2023-08-12T00:12:40;13.80;99.90
40153;DHT22;26371;56.992;23.912;2023-08-12T00:15:10;13.90;99.90
40153;DHT22;26371;56.992;23.912;2023-08-12T00:17:39;13.90;99.90
40153;DHT22;26371;56.992;23.912;2023-08-12T00:20:10;13.90;99.90
40153;DHT22;26371;56.992;23.912;2023-08-12T00:25:12;13.90;99.90
40153;DHT22;26371;56.992;23.912;2023-08-12T00:27:41;13.90;99.90
40153;DHT22;26371;56.992;23.912;2023-08-12T00:30:09;13.90;99.90
40153;DHT22;26371;56.992;23.912;2023-08-12T00:32:38;13.90;99.90
40153;DHT22;26371;56.992;23.912;2023-08-12T00:35:08;13.90;99.90
40153;DHT22;26371;56.992;23.912;2023-08-12T00:37:36;13.90;99.90
40153;DHT22;26371;56.992;23.912;2023-08-12T00:40:06;13.90;99.90
40153;DHT22;26371;56.992;23.912;2023-08-12T00:42:36;13.80;99.90
40153;DHT22;26371;56.992;23.912;2023-08-12T00:45:05;13.80;99.90
40153;DHT22;26371;56.992;23.912;2023-08-12T00:47:37;13.90;99.90
40153;DHT22;26371;56.992;23.912;2023-08-12T00:50:06;13.80;99.90
40153;DHT22;26371;56.992;23.912;2023-08-12T00:52:34;13.90;99.90
40153;DHT22;26371;56.992;23.912;2023-08-12T00:55:03;13.80;99.90
40153;DHT22;26371;56.992;23.912;2023-08-12T00:57:32;13.80;99.90
40153;DHT22;26371;56.992;23.912;2023-08-12T01:00:06;13.80;99.90
40153;DHT22;26371;56.992;23.912;2023-08-12T01:02:35;13.80;99.90
40153;DHT22;26371;56.992;23.912;2023-08-12T01:05:04;13.70;99.90
40153;DHT22;26371;56.992;23.912;2023-08-12T01:07:34;13.70;99.90
40153;DHT22;26371;56.992;23.912;2023-08-12T01:10:04;13.70;99.90
40153;DHT22;26371;56.992;23.912;2023-08-12T01:12:34;13.70;99.90
40153;DHT22;26371;56.992;23.912;2023-08-12T01:15:07;13.70;99.90
40153;DHT22;26371;56.992;23.912;2023-08-12T01:17:36;13.60;99.90
40153;DHT22;26371;56.992;23.912;2023-08-12T01:20:08;13.70;99.90
40153;DHT22;26371;56.992;23.912;2023-08-12T01:22:37;13.70;99.90
40153;DHT22;26371;56.992;23.912;2023-08-12T01:25:08;13.60;99.90
40153;DHT22;26371;56.992;23.912;2023-08-12T01:27:37;13.60;99.90
40153;DHT22;26371;56.992;23.912;2023-08-12T01:30:06;13.60;99.90
40153;DHT22;26371;56.992;23.912;2023-08-12T01:32:39;13.60;99.90
40153;DHT22;26371;56.992;23.912;2023-08-12T01:35:11;13.60;99.90
40153;DHT22;26371;56.992;23.912;2023-08-12T01:37:47;13.60;99.90
40153;DHT22;26371;56.992;23.912;2023-08-12T01:40:21;13.60;99.90
40153;DHT22;26371;56.992;23.912;2023-08-12T01:42:50;13.60;99.90
40153;DHT22;26371;56.992;23.912;2023-08-12T01:45:19;13.60;99.90
40153;DHT22;26371;56.992;23.912;2023-08-12T01:47:47;13.50;99.90
40153;DHT22;26371;56.992;23.912;2023-08-12T01:50:18;13.50;99.90
40153;DHT22;26371;56.992;23.912;2023-08-12T01:52:48;13.50;99.90
40153;DHT22;26371;56.992;23.912;2023-08-12T01:55:17;13.50;99.90
40153;DHT22;26371;56.992;23.912;2023-08-12T01:57:47;13.50;99.90
40153;DHT22;26371;56.992;23.912;2023-08-12T02:00:15;13.50;99.90
40153;DHT22;26371;56.992;23.912;2023-08-12T02:02:50;13.50;99.90
40153;DHT22;26371;56.992;23.912;2023-08-12T02:05:19;13.50;99.90
40153;DHT22;26371;56.992;23.912;2023-08-12T02:07:49;13.40;99.90
40153;DHT22;26371;56.992;23.912;2023-08-12T02:10:18;13.40;99.90
40153;DHT22;26371;56.992;23.912;2023-08-12T02:12:48;13.40;99.90
40153;DHT22;26371;56.992;23.912;2023-08-12T02:15:17;13.30;99.90
40153;DHT22;26371;56.992;23.912;2023-08-12T02:17:45;13.30;99.90
40153;DHT22;26371;56.992;23.912;2023-08-12T02:20:14;13.30;99.90
40153;DHT22;26371;56.992;23.912;2023-08-12T02:22:42;13.20;99.90
40153;DHT22;26371;56.992;23.912;2023-08-12T02:25:10;13.20;99.90
40153;DHT22;26371;56.992;23.912;2023-08-12T02:27:39;13.20;99.90
40153;DHT22;26371;56.992;23.912;2023-08-12T02:30:10;13.20;99.90
40153;DHT22;26371;56.992;23.912;2023-08-12T02:32:38;13.20;99.90
40153;DHT22;26371;56.992;23.912;2023-08-12T02:35:10;13.20;99.90
40153;DHT22;26371;56.992;23.912;2023-08-12T02:37:38;13.30;99.90
40153;DHT22;26371;56.992;23.912;2023-08-12T02:40:08;13.30;99.90
40153;DHT22;26371;56.992;23.912;2023-08-12T02:42:37;13.30;99.90
40153;DHT22;26371;56.992;23.912;2023-08-12T02:45:06;13.40;99.90
40153;DHT22;26371;56.992;23.912;2023-08-12T02:47:35;13.40;99.90
40153;DHT22;26371;56.992;23.912;2023-08-12T02:50:05;13.40;99.90
40153;DHT22;26371;56.992;23.912;2023-08-12T02:52:34;13.30;99.90
40153;DHT22;26371;56.992;23.912;2023-08-12T02:55:03;13.30;99.90
40153;DHT22;26371;56.992;23.912;2023-08-12T02:57:31;13.30;99.90
40153;DHT22;26371;56.992;23.912;2023-08-12T03:00:00;13.30;99.90
40153;DHT22;26371;56.992;23.912;2023-08-12T03:02:31;13.30;99.90
40153;DHT22;26371;56.992;23.912;2023-08-12T03:05:01;13.30;99.90
40153;DHT22;26371;56.992;23.912;2023-08-12T03:07:30;13.30;99.90
40153;DHT22;26371;56.992;23.912;2023-08-12T03:09:58;13.40;99.90
40153;DHT22;26371;56.992;23.912;2023-08-12T03:12:26;13.30;99.90
40153;DHT22;26371;56.992;23.912;2023-08-12T03:14:55;13.30;99.90
40153;DHT22;26371;56.992;23.912;2023-08-12T03:17:24;13.30;99.90
40153;DHT22;26371;56.992;23.912;2023-08-12T03:19:54;13.30;99.90
40153;DHT22;26371;56.992;23.912;2023-08-12T03:22:23;13.30;99.90
40153;DHT22;26371;56.992;23.912;2023-08-12T03:24:52;13.30;99.90
40153;DHT22;26371;56.992;23.912;2023-08-12T03:27:20;13.30;99.90
40153;DHT22;26371;56.992;23.912;2023-08-12T03:29:50;13.30;99.90
40153;DHT22;26371;56.992;23.912;2023-08-12T03:32:20;13.30;99.90
40153;DHT22;26371;56.992;23.912;2023-08-12T03:34:49;13.20;99.90
40153;DHT22;26371;56.992;23.912;2023-08-12T03:37:18;13.20;99.90
40153;DHT22;26371;56.992;23.912;2023-08-12T03:39:50;13.20;99.90
40153;DHT22;26371;56.992;23.912;2023-08-12T03:42:18;13.20;99.90
40153;DHT22;26371;56.992;23.912;2023-08-12T03:44:48;13.10;99.90
40153;DHT22;26371;56.992;23.912;2023-08-12T03:47:19;13.10;99.90
40153;DHT22;26371;56.992;23.912;2023-08-12T03:49:50;13.10;99.90
40153;DHT22;26371;56.992;23.912;2023-08-12T03:52:19;13.10;99.90
40153;DHT22;26371;56.992;23.912;2023-08-12T03:54:47;13.10;99.90
40153;DHT22;26371;56.992;23.912;2023-08-12T03:57:17;13.20;99.90
40153;DHT22;26371;56.992;23.912;2023-08-12T03:59:47;13.20;99.90
40153;DHT22;26371;56.992;23.912;2023-08-12T04:02:15;13.20;99.90
40153;DHT22;26371;56.992;23.912;2023-08-12T04:04:44;13.30;99.90
40153;DHT22;26371;56.992;23.912;2023-08-12T04:07:12;13.30;99.90
40153;DHT22;26371;56.992;23.912;2023-08-12T04:09:41;13.40;99.90
40153;DHT22;26371;56.992;23.912;2023-08-12T04:12:09;13.40;99.90
40153;DHT22;26371;56.992;23.912;2023-08-12T04:14:39;13.40;99.90
40153;DHT22;26371;56.992;23.912;2023-08-12T04:17:08;13.50;99.90
40153;DHT22;26371;56.992;23.912;2023-08-12T04:19:38;13.50;99.90
40153;DHT22;26371;56.992;23.912;2023-08-12T04:22:08;13.60;99.90
40153;DHT22;26371;56.992;23.912;2023-08-12T04:24:37;13.70;99.90
40153;DHT22;26371;56.992;23.912;2023-08-12T04:27:05;13.70;99.90
40153;DHT22;26371;56.992;23.912;2023-08-12T04:29:34;13.70;99.90
40153;DHT22;26371;56.992;23.912;2023-08-12T04:32:07;13.70;99.90
40153;DHT22;26371;56.992;23.912;2023-08-12T04:34:35;13.70;99.90
40153;DHT22;26371;56.992;23.912;2023-08-12T04:37:04;13.80;99.90
40153;DHT22;26371;56.992;23.912;2023-08-12T04:39:33;13.80;99.90
40153;DHT22;26371;56.992;23.912;2023-08-12T04:42:01;13.80;99.90
40153;DHT22;26371;56.992;23.912;2023-08-12T04:44:30;13.90;99.90
40153;DHT22;26371;56.992;23.912;2023-08-12T04:47:00;14.00;99.90
40153;DHT22;26371;56.992;23.912;2023-08-12T04:49:31;14.00;99.90
40153;DHT22;26371;56.992;23.912;2023-08-12T04:51:59;14.10;99.90
40153;DHT22;26371;56.992;23.912;2023-08-12T04:54:28;14.10;99.90
40153;DHT22;26371;56.992;23.912;2023-08-12T04:56:56;14.10;99.90
40153;DHT22;26371;56.992;23.912;2023-08-12T04:59:25;14.20;99.90
40153;DHT22;26371;56.992;23.912;2023-08-12T05:01:53;14.30;99.90
40153;DHT22;26371;56.992;23.912;2023-08-12T05:04:43;14.40;99.90
40153;DHT22;26371;56.992;23.912;2023-08-12T05:07:14;14.40;99.90
40153;DHT22;26371;56.992;23.912;2023-08-12T05:09:43;14.40;99.90
40153;DHT22;26371;56.992;23.912;2023-08-12T05:12:14;14.50;99.90
40153;DHT22;26371;56.992;23.912;2023-08-12T05:14:43;14.50;99.90
40153;DHT22;26371;56.992;23.912;2023-08-12T05:17:11;14.60;99.90
40153;DHT22;26371;56.992;23.912;2023-08-12T05:19:41;14.60;99.90
40153;DHT22;26371;56.992;23.912;2023-08-12T05:22:11;14.60;99.90
40153;DHT22;26371;56.992;23.912;2023-08-12T05:24:40;14.70;99.90
40153;DHT22;26371;56.992;23.912;2023-08-12T05:27:10;14.70;99.90
40153;DHT22;26371;56.992;23.912;2023-08-12T05:29:39;14.80;99.90
40153;DHT22;26371;56.992;23.912;2023-08-12T05:32:08;14.90;99.90
40153;DHT22;26371;56.992;23.912;2023-08-12T05:34:37;14.90;99.90
40153;DHT22;26371;56.992;23.912;2023-08-12T05:37:05;15.00;99.90
40153;DHT22;26371;56.992;23.912;2023-08-12T05:39:36;15.00;99.90
40153;DHT22;26371;56.992;23.912;2023-08-12T05:42:05;15.10;99.90
40153;DHT22;26371;56.992;23.912;2023-08-12T07:03:54;16.60;99.90
40153;DHT22;26371;56.992;23.912;2023-08-12T07:06:22;16.70;99.90
40153;DHT22;26371;56.992;23.912;2023-08-12T07:08:51;16.60;99.90
40153;DHT22;26371;56.992;23.912;2023-08-12T07:11:19;16.60;99.90
40153;DHT22;26371;56.992;23.912;2023-08-12T07:13:48;16.70;99.90
40153;DHT22;26371;56.992;23.912;2023-08-12T07:16:17;16.70;99.90
40153;DHT22;26371;56.992;23.912;2023-08-12T07:18:45;16.70;99.90
40153;DHT22;26371;56.992;23.912;2023-08-12T07:21:15;16.80;99.90
40153;DHT22;26371;56.992;23.912;2023-08-12T07:23:44;16.80;99.90
40153;DHT22;26371;56.992;23.912;2023-08-12T07:26:28;16.80;99.90
40153;DHT22;26371;56.992;23.912;2023-08-12T07:28:57;16.80;99.90
40153;DHT22;26371;56.992;23.912;2023-08-12T07:31:26;16.90;99.90
40153;DHT22;26371;56.992;23.912;2023-08-12T07:33:54;16.80;99.90
40153;DHT22;26371;56.992;23.912;2023-08-12T07:36:24;16.90;99.90
40153;DHT22;26371;56.992;23.912;2023-08-12T07:38:52;16.90;99.90
40153;DHT22;26371;56.992;23.912;2023-08-12T07:41:21;16.90;99.90
40153;DHT22;26371;56.992;23.912;2023-08-12T07:43:50;17.00;99.90
40153;DHT22;26371;56.992;23.912;2023-08-12T07:46:19;17.10;99.90
40153;DHT22;26371;56.992;23.912;2023-08-12T07:48:47;17.10;99.90
40153;DHT22;26371;56.992;23.912;2023-08-12T07:51:16;17.10;99.90
40153;DHT22;26371;56.992;23.912;2023-08-12T07:53:46;17.10;99.90
40153;DHT22;26371;56.992;23.912;2023-08-12T07:56:14;17.10;99.90
40153;DHT22;26371;56.992;23.912;2023-08-12T07:58:42;17.20;99.90
40153;DHT22;26371;56.992;23.912;2023-08-12T08:01:12;17.30;99.90
40153;DHT22;26371;56.992;23.912;2023-08-12T08:03:41;17.30;99.90
40153;DHT22;26371;56.992;23.912;2023-08-12T08:06:09;17.30;99.90
40153;DHT22;26371;56.992;23.912;2023-08-12T08:08:38;17.30;99.90
40153;DHT22;26371;56.992;23.912;2023-08-12T08:11:08;17.30;99.90
40153;DHT22;26371;56.992;23.912;2023-08-12T08:13:36;17.30;99.90
40153;DHT22;26371;56.992;23.912;2023-08-12T08:16:04;17.30;99.90
40153;DHT22;26371;56.992;23.912;2023-08-12T08:18:35;17.40;99.90
40153;DHT22;26371;56.992;23.912;2023-08-12T08:21:03;17.40;99.90
40153;DHT22;26371;56.992;23.912;2023-08-12T08:23:32;17.40;99.90
40153;DHT22;26371;56.992;23.912;2023-08-12T09:13:13;18.20;99.90
40153;DHT22;26371;56.992;23.912;2023-08-12T09:15:45;18.40;99.90
40153;DHT22;26371;56.992;23.912;2023-08-12T09:18:13;18.50;99.90
40153;DHT22;26371;56.992;23.912;2023-08-12T09:20:43;18.50;99.90
40153;DHT22;26371;56.992;23.912;2023-08-12T09:23:12;18.50;99.90
40153;DHT22;26371;56.992;23.912;2023-08-12T09:25:41;18.50;99.90
40153;DHT22;26371;56.992;23.912;2023-08-12T09:28:10;18.50;99.90
40153;DHT22;26371;56.992;23.912;2023-08-12T09:30:41;18.60;99.90
40153;DHT22;26371;56.992;23.912;2023-08-12T09:33:10;18.60;99.90
40153;DHT22;26371;56.992;23.912;2023-08-12T09:35:39;18.60;99.90
40153;DHT22;26371;56.992;23.912;2023-08-12T09:38:10;18.70;99.90
40153;DHT22;26371;56.992;23.912;2023-08-12T09:40:39;18.70;99.90
40153;DHT22;26371;56.992;23.912;2023-08-12T09:43:09;18.70;99.90
40153;DHT22;26371;56.992;23.912;2023-08-12T09:45:38;18.70;99.90
40153;DHT22;26371;56.992;23.912;2023-08-12T09:48:09;18.90;99.90
40153;DHT22;26371;56.992;23.912;2023-08-12T09:50:39;19.00;99.90
40153;DHT22;26371;56.992;23.912;2023-08-12T09:53:08;19.00;99.90
40153;DHT22;26371;56.992;23.912;2023-08-12T09:55:38;19.00;99.90
40153;DHT22;26371;56.992;23.912;2023-08-12T09:58:06;19.00;99.90
40153;DHT22;26371;56.992;23.912;2023-08-12T10:00:38;19.00;99.90
40153;DHT22;26371;56.992;23.912;2023-08-12T10:03:09;19.00;99.90
40153;DHT22;26371;56.992;23.912;2023-08-12T10:05:41;19.20;99.90
40153;DHT22;26371;56.992;23.912;2023-08-12T10:08:10;19.10;99.90
40153;DHT22;26371;56.992;23.912;2023-08-12T10:10:41;18.90;99.90
40153;DHT22;26371;56.992;23.912;2023-08-12T10:13:11;18.70;99.90
40153;DHT22;26371;56.992;23.912;2023-08-12T10:15:40;18.60;99.90
40153;DHT22;26371;56.992;23.912;2023-08-12T10:18:10;18.60;99.90
40153;DHT22;26371;56.992;23.912;2023-08-12T10:20:38;18.70;99.90
40153;DHT22;26371;56.992;23.912;2023-08-12T10:23:07;18.70;99.90
40153;DHT22;26371;56.992;23.912;2023-08-12T10:25:35;18.80;99.90
40153;DHT22;26371;56.992;23.912;2023-08-12T10:28:05;19.00;99.90
40153;DHT22;26371;56.992;23.912;2023-08-12T10:30:35;19.10;99.90
40153;DHT22;26371;56.992;23.912;2023-08-12T10:33:04;19.20;99.90
40153;DHT22;26371;56.992;23.912;2023-08-12T10:35:46;19.30;99.90
40153;DHT22;26371;56.992;23.912;2023-08-12T10:38:16;19.30;99.90
40153;DHT22;26371;56.992;23.912;2023-08-12T10:40:45;19.20;99.90
40153;DHT22;26371;56.992;23.912;2023-08-12T10:43:13;19.20;99.90
40153;DHT22;26371;56.992;23.912;2023-08-12T10:45:42;19.20;99.90
40153;DHT22;26371;56.992;23.912;2023-08-12T10:48:16;19.20;99.90
40153;DHT22;26371;56.992;23.912;2023-08-12T10:50:47;19.20;99.90
40153;DHT22;26371;56.992;23.912;2023-08-12T10:53:23;19.20;99.90
40153;DHT22;26371;56.992;23.912;2023-08-12T10:55:57;19.10;99.90
40153;DHT22;26371;56.992;23.912;2023-08-12T10:58:26;19.00;99.90
40153;DHT22;26371;56.992;23.912;2023-08-12T11:00:55;18.90;99.90
40153;DHT22;26371;56.992;23.912;2023-08-12T11:03:24;19.00;99.90
40153;DHT22;26371;56.992;23.912;2023-08-12T11:05:54;19.10;99.90
40153;DHT22;26371;56.992;23.912;2023-08-12T11:08:24;19.20;99.90
40153;DHT22;26371;56.992;23.912;2023-08-12T11:10:54;19.30;99.90
40153;DHT22;26371;56.992;23.912;2023-08-12T11:13:22;19.30;99.90
40153;DHT22;26371;56.992;23.912;2023-08-12T11:15:51;19.50;99.90
40153;DHT22;26371;56.992;23.912;2023-08-12T11:18:20;19.50;99.90
40153;DHT22;26371;56.992;23.912;2023-08-12T11:20:49;19.60;99.90
40153;DHT22;26371;56.992;23.912;2023-08-12T11:23:19;19.70;99.90
40153;DHT22;26371;56.992;23.912;2023-08-12T11:25:48;19.90;99.90
40153;DHT22;26371;56.992;23.912;2023-08-12T11:28:17;19.90;99.90
40153;DHT22;26371;56.992;23.912;2023-08-12T11:30:50;20.00;99.90
40153;DHT22;26371;56.992;23.912;2023-08-12T11:33:19;20.00;99.90
40153;DHT22;26371;56.992;23.912;2023-08-12T11:35:48;20.00;99.90
40153;DHT22;26371;56.992;23.912;2023-08-12T11:40:50;20.00;99.90
40153;DHT22;26371;56.992;23.912;2023-08-12T11:43:20;19.90;99.90
40153;DHT22;26371;56.992;23.912;2023-08-12T11:45:50;19.90;99.90
40153;DHT22;26371;56.992;23.912;2023-08-12T11:48:18;19.90;99.90
40153;DHT22;26371;56.992;23.912;2023-08-12T11:50:48;19.90;99.90
40153;DHT22;26371;56.992;23.912;2023-08-12T11:53:16;20.00;99.90
40153;DHT22;26371;56.992;23.912;2023-08-12T11:55:45;20.20;99.90
40153;DHT22;26371;56.992;23.912;2023-08-12T11:58:16;20.40;99.90
40153;DHT22;26371;56.992;23.912;2023-08-12T12:00:46;20.30;99.90
40153;DHT22;26371;56.992;23.912;2023-08-12T12:03:15;20.40;99.90
40153;DHT22;26371;56.992;23.912;2023-08-12T12:05:45;20.40;99.90
40153;DHT22;26371;56.992;23.912;2023-08-12T12:08:14;20.40;99.90
40153;DHT22;26371;56.992;23.912;2023-08-12T12:10:42;20.40;99.90
40153;DHT22;26371;56.992;23.912;2023-08-12T12:13:11;20.40;99.90
40153;DHT22;26371;56.992;23.912;2023-08-12T12:15:43;20.30;99.90
40153;DHT22;26371;56.992;23.912;2023-08-12T12:18:12;20.40;99.90
40153;DHT22;26371;56.992;23.912;2023-08-12T12:20:56;20.30;99.90
40153;DHT22;26371;56.992;23.912;2023-08-12T12:23:27;20.30;99.90
40153;DHT22;26371;56.992;23.912;2023-08-12T12:25:57;20.30;99.90
40153;DHT22;26371;56.992;23.912;2023-08-12T12:28:26;20.30;99.90
40153;DHT22;26371;56.992;23.912;2023-08-12T12:30:56;20.40;99.90
40153;DHT22;26371;56.992;23.912;2023-08-12T12:33:25;20.30;99.90
40153;DHT22;26371;56.992;23.912;2023-08-12T12:35:54;20.40;99.90
40153;DHT22;26371;56.992;23.912;2023-08-12T12:38:27;20.50;99.90
40153;DHT22;26371;56.992;23.912;2023-08-12T12:40:56;20.50;99.90
40153;DHT22;26371;56.992;23.912;2023-08-12T12:43:24;20.40;99.90
40153;DHT22;26371;56.992;23.912;2023-08-12T12:45:52;20.40;99.90
40153;DHT22;26371;56.992;23.912;2023-08-12T12:48:22;20.40;99.90
40153;DHT22;26371;56.992;23.912;2023-08-12T12:50:52;20.30;99.90
40153;DHT22;26371;56.992;23.912;2023-08-12T12:53:20;20.20;99.90
40153;DHT22;26371;56.992;23.912;2023-08-12T12:55:48;20.20;99.90
40153;DHT22;26371;56.992;23.912;2023-08-12T12:58:17;20.20;99.90
40153;DHT22;26371;56.992;23.912;2023-08-12T13:00:45;20.10;99.90
40153;DHT22;26371;56.992;23.912;2023-08-12T13:03:14;20.00;99.90
40153;DHT22;26371;56.992;23.912;2023-08-12T13:05:44;20.20;99.90
40153;DHT22;26371;56.992;23.912;2023-08-12T13:08:13;20.20;99.90
40153;DHT22;26371;56.992;23.912;2023-08-12T13:10:41;20.20;99.90
40153;DHT22;26371;56.992;23.912;2023-08-12T13:13:12;20.30;99.90
40153;DHT22;26371;56.992;23.912;2023-08-12T13:15:40;20.40;99.90
40153;DHT22;26371;56.992;23.912;2023-08-12T13:18:09;20.50;99.90
40153;DHT22;26371;56.992;23.912;2023-08-12T13:20:38;20.60;99.90
40153;DHT22;26371;56.992;23.912;2023-08-12T13:23:08;20.60;99.90
40153;DHT22;26371;56.992;23.912;2023-08-12T13:25:37;20.40;99.90
40153;DHT22;26371;56.992;23.912;2023-08-12T13:28:06;20.30;99.90
40153;DHT22;26371;56.992;23.912;2023-08-12T13:30:35;20.30;99.90
40153;DHT22;26371;56.992;23.912;2023-08-12T13:33:03;20.30;99.90
40153;DHT22;26371;56.992;23.912;2023-08-12T13:35:32;20.20;99.90
40153;DHT22;26371;56.992;23.912;2023-08-12T13:38:01;20.20;99.90
40153;DHT22;26371;56.992;23.912;2023-08-12T13:40:31;20.20;99.90
40153;DHT22;26371;56.992;23.912;2023-08-12T13:42:59;20.10;99.90
40153;DHT22;26371;56.992;23.912;2023-08-12T13:45:28;20.10;99.90
40153;DHT22;26371;56.992;23.912;2023-08-12T13:47:56;20.10;99.90
40153;DHT22;26371;56.992;23.912;2023-08-12T13:50:27;20.10;99.90
40153;DHT22;26371;56.992;23.912;2023-08-12T13:52:55;20.20;99.90
40153;DHT22;26371;56.992;23.912;2023-08-12T13:55:24;20.30;99.90
40153;DHT22;26371;56.992;23.912;2023-08-12T13:57:54;20.20;99.90
40153;DHT22;26371;56.992;23.912;2023-08-12T14:00:23;20.10;99.90
40153;DHT22;26371;56.992;23.912;2023-08-12T14:02:52;20.00;99.90
40153;DHT22;26371;56.992;23.912;2023-08-12T14:05:20;20.00;99.90
40153;DHT22;26371;56.992;23.912;2023-08-12T14:07:50;20.00;99.90
40153;DHT22;26371;56.992;23.912;2023-08-12T14:10:18;20.00;99.90
40153;DHT22;26371;56.992;23.912;2023-08-12T14:12:46;20.10;99.90
40153;DHT22;26371;56.992;23.912;2023-08-12T14:15:20;20.10;99.90
40153;DHT22;26371;56.992;23.912;2023-08-12T14:17:48;20.20;99.90
40153;DHT22;26371;56.992;23.912;2023-08-12T14:20:17;20.40;99.90
40153;DHT22;26371;56.992;23.912;2023-08-12T14:22:45;20.40;99.90
40153;DHT22;26371;56.992;23.912;2023-08-12T14:25:14;20.30;99.90
40153;DHT22;26371;56.992;23.912;2023-08-12T14:27:43;20.20;99.90
40153;DHT22;26371;56.992;23.912;2023-08-12T14:30:12;20.10;99.90
40153;DHT22;26371;56.992;23.912;2023-08-12T14:32:42;20.10;99.90
40153;DHT22;26371;56.992;23.912;2023-08-12T14:35:10;20.00;99.90
40153;DHT22;26371;56.992;23.912;2023-08-12T14:37:39;20.00;99.90
40153;DHT22;26371;56.992;23.912;2023-08-12T14:40:07;20.00;99.90
40153;DHT22;26371;56.992;23.912;2023-08-12T14:42:36;20.00;99.90
40153;DHT22;26371;56.992;23.912;2023-08-12T14:45:05;20.10;99.90
40153;DHT22;26371;56.992;23.912;2023-08-12T14:47:34;20.00;99.90
40153;DHT22;26371;56.992;23.912;2023-08-12T14:50:04;20.10;99.90
40153;DHT22;26371;56.992;23.912;2023-08-12T14:52:34;20.30;99.90
40153;DHT22;26371;56.992;23.912;2023-08-12T14:55:03;20.40;99.90
40153;DHT22;26371;56.992;23.912;2023-08-12T14:57:31;20.50;99.90
40153;DHT22;26371;56.992;23.912;2023-08-12T15:00:01;20.70;99.90
40153;DHT22;26371;56.992;23.912;2023-08-12T15:02:29;20.90;99.90
40153;DHT22;26371;56.992;23.912;2023-08-12T15:04:59;21.20;99.90
40153;DHT22;26371;56.992;23.912;2023-08-12T15:07:29;21.10;99.90
40153;DHT22;26371;56.992;23.912;2023-08-12T15:09:58;21.20;99.90
40153;DHT22;26371;56.992;23.912;2023-08-12T15:12:26;21.10;99.90
40153;DHT22;26371;56.992;23.912;2023-08-12T15:14:54;21.20;99.90
40153;DHT22;26371;56.992;23.912;2023-08-12T15:17:23;21.10;99.90
40153;DHT22;26371;56.992;23.912;2023-08-12T15:19:51;21.10;99.90
40153;DHT22;26371;56.992;23.912;2023-08-12T15:22:20;21.10;99.90
40153;DHT22;26371;56.992;23.912;2023-08-12T15:24:50;21.10;99.90
40153;DHT22;26371;56.992;23.912;2023-08-12T15:27:19;21.10;99.90
40153;DHT22;26371;56.992;23.912;2023-08-12T15:29:48;21.10;99.90
40153;DHT22;26371;56.992;23.912;2023-08-12T15:32:16;21.10;99.90
40153;DHT22;26371;56.992;23.912;2023-08-12T15:34:45;21.20;99.90
40153;DHT22;26371;56.992;23.912;2023-08-12T15:37:13;21.30;99.90
40153;DHT22;26371;56.992;23.912;2023-08-12T15:39:42;21.20;99.90
40153;DHT22;26371;56.992;23.912;2023-08-12T15:42:11;21.30;99.90
40153;DHT22;26371;56.992;23.912;2023-08-12T15:44:40;21.20;99.90
40153;DHT22;26371;56.992;23.912;2023-08-12T15:47:08;21.20;99.90
40153;DHT22;26371;56.992;23.912;2023-08-12T15:49:37;21.00;99.90
40153;DHT22;26371;56.992;23.912;2023-08-12T15:52:06;20.90;99.90
40153;DHT22;26371;56.992;23.912;2023-08-12T15:54:34;20.70;99.90
40153;DHT22;26371;56.992;23.912;2023-08-12T15:57:03;20.60;99.90
40153;DHT22;26371;56.992;23.912;2023-08-12T15:59:33;20.40;99.90
40153;DHT22;26371;56.992;23.912;2023-08-12T16:04:30;20.40;99.90
40153;DHT22;26371;56.992;23.912;2023-08-12T16:19:27;20.10;99.90
40153;DHT22;26371;56.992;23.912;2023-08-12T16:21:57;20.10;99.90
40153;DHT22;26371;56.992;23.912;2023-08-12T16:24:25;19.80;99.90
40153;DHT22;26371;56.992;23.912;2023-08-12T16:26:53;19.70;99.90
40153;DHT22;26371;56.992;23.912;2023-08-12T16:29:22;19.60;99.90
40153;DHT22;26371;56.992;23.912;2023-08-12T16:31:50;19.50;99.90
40153;DHT22;26371;56.992;23.912;2023-08-12T16:34:19;19.40;99.90
40153;DHT22;26371;56.992;23.912;2023-08-12T16:36:48;19.20;99.90
40153;DHT22;26371;56.992;23.912;2023-08-12T16:39:37;19.10;99.90
40153;DHT22;26371;56.992;23.912;2023-08-12T16:42:05;19.10;99.90
40153;DHT22;26371;56.992;23.912;2023-08-12T16:44:34;19.00;99.90
40153;DHT22;26371;56.992;23.912;2023-08-12T16:47:02;19.00;99.90
40153;DHT22;26371;56.992;23.912;2023-08-12T16:49:33;18.90;99.90
40153;DHT22;26371;56.992;23.912;2023-08-12T16:52:02;18.80;99.90
40153;DHT22;26371;56.992;23.912;2023-08-12T16:54:31;18.80;99.90
40153;DHT22;26371;56.992;23.912;2023-08-12T16:56:59;18.70;99.90
40153;DHT22;26371;56.992;23.912;2023-08-12T16:59:28;18.70;99.90
40153;DHT22;26371;56.992;23.912;2023-08-12T17:01:56;18.60;99.90
40153;DHT22;26371;56.992;23.912;2023-08-12T17:04:24;18.60;99.90
40153;DHT22;26371;56.992;23.912;2023-08-12T17:06:53;18.60;99.90
40153;DHT22;26371;56.992;23.912;2023-08-12T17:09:23;18.50;99.90
40153;DHT22;26371;56.992;23.912;2023-08-12T17:11:51;18.40;99.90
40153;DHT22;26371;56.992;23.912;2023-08-12T17:14:19;18.50;99.90
40153;DHT22;26371;56.992;23.912;2023-08-12T17:29:22;18.00;99.90
40153;DHT22;26371;56.992;23.912;2023-08-12T17:31:50;18.00;99.90
40153;DHT22;26371;56.992;23.912;2023-08-12T17:34:18;17.90;99.90
40153;DHT22;26371;56.992;23.912;2023-08-12T17:36:47;17.90;99.90
40153;DHT22;26371;56.992;23.912;2023-08-12T17:39:15;17.80;99.90
40153;DHT22;26371;56.992;23.912;2023-08-12T17:41:44;17.80;99.90
40153;DHT22;26371;56.992;23.912;2023-08-12T17:44:12;17.70;99.90
40153;DHT22;26371;56.992;23.912;2023-08-12T17:46:42;17.60;99.90
40153;DHT22;26371;56.992;23.912;2023-08-12T17:49:11;17.50;99.90
40153;DHT22;26371;56.992;23.912;2023-08-12T17:51:40;17.40;99.90
40153;DHT22;26371;56.992;23.912;2023-08-12T17:54:09;17.40;99.90
40153;DHT22;26371;56.992;23.912;2023-08-12T17:56:37;17.30;99.90
40153;DHT22;26371;56.992;23.912;2023-08-12T17:59:08;17.20;99.90
40153;DHT22;26371;56.992;23.912;2023-08-12T18:01:36;17.30;99.90
40153;DHT22;26371;56.992;23.912;2023-08-12T18:04:06;17.20;99.90
40153;DHT22;26371;56.992;23.912;2023-08-12T18:06:34;17.10;99.90